Time;durP1;ratioP1;P1;durP2;ratioP2;P2;SDS_P1;SDS_P2;PMS_P1;PMS_P2;Temp;Humidity;BMP_temperature;BMP_pressure;BME280_temperature;BME280_humidity;BME280_pressure;Samples;Min_cycle;Max_cycle;Signal;HPM_P1;HPM_P2
2023/04/06 00:01:18;;;;;;;10.40;8.50;;;;;;;7.39;100.00;100189.06;5035871;28;20395;-75
2023/04/06 00:03:44;;;;;;;9.77;8.77;;;;;;;7.44;100.00;100185.63;5053787;28;20036;-74
2023/04/06 00:06:10;;;;;;;9.60;8.50;;;;;;;6.69;100.00;100073.59;5032105;28;20585;-75
2023/04/06 00:08:38;;;;;;;10.80;9.00;;;;;;;7.43;100.00;100185.63;5033041;28;20381;-75
2023/04/06 00:11:04;;;;;;;9.65;8.65;;;;;;;6.90;100.00;100135.69;5032171;28;20032;-74
2023/04/06 00:13:29;;;;;;;9.50;8.45;;;;;;;7.61;100.00;100175.28;5033762;28;20116;-74
2023/04/06 00:15:55;;;;;;;10.35;9.05;;;;;;;7.17;100.00;100167.41;5033430;28;20137;-74
2023/04/06 00:18:20;;;;;;;10.15;8.90;;;;;;;7.60;100.00;100161.81;5032496;28;20064;-74
2023/04/06 00:20:46;;;;;;;9.88;8.88;;;;;;;7.45;100.00;100173.78;5033449;28;20029;-75
2023/04/06 00:23:11;;;;;;;9.55;8.65;;;;;;;6.90;100.00;100095.25;5033024;28;20128;-75
2023/04/06 00:25:37;;;;;;;9.77;8.45;;;;;;;7.07;100.00;100155.72;5031565;28;20029;-75
2023/04/06 00:28:03;;;;;;;10.43;8.52;;;;;;;7.17;100.00;100116.84;5032013;28;20034;-75
2023/04/06 00:30:28;;;;;;;9.45;8.43;;;;;;;7.66;100.00;100159.22;5033417;28;20175;-74
2023/04/06 00:32:54;;;;;;;8.88;7.97;;;;;;;7.77;100.00;100161.56;5031598;28;20530;-74
2023/04/06 00:35:19;;;;;;;9.82;8.75;;;;;;;7.45;100.00;100151.03;5064811;28;20037;-74
2023/04/06 00:37:47;;;;;;;9.40;8.40;;;;;;;7.81;100.00;100163.19;5032998;28;20060;-74
2023/04/06 00:40:14;;;;;;;10.20;8.50;;;;;;;6.99;100.00;100042.09;5032837;28;20099;-74
2023/04/06 00:42:46;;;;;;;9.57;8.55;;;;;;;7.47;100.00;100161.97;5033232;28;20140;-75
2023/04/06 00:45:11;;;;;;;9.98;8.70;;;;;;;7.30;100.00;100168.94;5032333;28;20033;-74
2023/04/06 00:47:37;;;;;;;10.13;8.70;;;;;;;7.57;100.00;100125.59;5031480;28;20055;-74
2023/04/06 00:50:03;;;;;;;10.32;8.93;;;;;;;7.23;100.00;100099.09;5032687;28;20068;-73
2023/04/06 00:52:28;;;;;;;11.57;9.07;;;;;;;7.33;100.00;100139.38;5032735;28;20091;-74
2023/04/06 00:54:54;;;;;;;9.80;8.80;;;;;;;7.29;100.00;100119.22;5032291;28;20041;-73
2023/04/06 00:57:19;;;;;;;9.63;8.63;;;;;;;7.19;100.00;100099.97;5032650;28;20083;-73
2023/04/06 00:59:45;;;;;;;9.40;8.40;;;;;;;6.99;100.00;100073.22;5031308;28;20094;-74
2023/04/06 01:02:11;;;;;;;10.40;8.18;;;;;;;7.68;100.00;100134.72;5032397;28;20029;-74
2023/04/06 01:04:36;;;;;;;10.02;8.93;;;;;;;7.26;100.00;100104.09;5031828;28;20049;-73
2023/04/06 01:07:02;;;;;;;10.15;8.23;;;;;;;7.24;100.00;100095.69;5031742;28;20036;-73
2023/04/06 01:09:29;;;;;;;10.18;8.60;;;;;;;7.32;100.00;100130.13;5032509;28;20025;-74
2023/04/06 01:11:58;;;;;;;9.88;8.63;;;;;;;7.46;100.00;100135.00;5015247;28;20037;-75
2023/04/06 01:14:24;;;;;;;10.35;8.65;;;;;;;6.84;100.00;100072.56;5042944;28;20036;-74
2023/04/06 01:16:52;;;;;;;10.00;8.43;;;;;;;6.92;100.00;100088.50;5031913;28;20103;-74
2023/04/06 01:19:18;;;;;;;9.48;8.43;;;;;;;7.17;100.00;100126.97;5032732;28;20033;-74
2023/04/06 01:21:43;;;;;;;10.27;8.85;;;;;;;7.39;100.00;100129.19;5047620;28;20114;-76
2023/04/06 01:24:09;;;;;;;9.35;8.30;;;;;;;7.40;100.00;100135.09;5047625;28;20037;-74
2023/04/06 01:26:35;;;;;;;10.75;8.65;;;;;;;7.34;100.00;100150.34;5014656;28;20060;-75
2023/04/06 01:29:02;;;;;;;10.25;8.80;;;;;;;7.09;100.00;100073.94;5014825;28;20127;-76
2023/04/06 01:31:28;;;;;;;9.60;8.70;;;;;;;6.90;100.00;100063.25;5014574;28;20033;-74
2023/04/06 01:33:56;;;;;;;10.40;9.13;;;;;;;6.47;100.00;100011.56;5032261;28;20095;-76
2023/04/06 01:36:22;;;;;;;10.18;9.13;;;;;;;6.49;100.00;100050.25;5047233;28;20043;-75
2023/04/06 01:38:47;;;;;;;9.45;8.38;;;;;;;7.01;100.00;100127.13;5047461;28;20555;-75
2023/04/06 01:41:13;;;;;;;10.05;8.95;;;;;;;6.38;100.00;100134.53;5047390;28;20025;-75
2023/04/06 01:43:38;;;;;;;11.10;8.88;;;;;;;6.31;100.00;100084.94;5014199;28;20037;-75
2023/04/06 01:46:04;;;;;;;9.57;8.35;;;;;;;6.20;100.00;100059.78;5047009;28;20037;-75
2023/04/06 01:48:30;;;;;;;10.25;9.02;;;;;;;6.62;100.00;100093.88;5014710;28;20518;-74
2023/04/06 01:50:56;;;;;;;17.30;14.15;;;;;;;6.90;100.00;100150.84;5031448;28;20060;-74
2023/04/06 01:53:21;;;;;;;19.13;14.07;;;;;;;6.93;100.00;100141.53;5031410;28;20025;-75
2023/04/06 01:55:47;;;;;;;17.20;14.93;;;;;;;5.99;100.00;100067.53;5014115;28;20388;-76
2023/04/06 01:58:13;;;;;;;17.95;15.65;;;;;;;6.60;100.00;100134.31;5014077;28;20049;-75
2023/04/06 02:00:39;;;;;;;18.58;16.52;;;;;;;5.88;100.00;100080.22;5031636;28;20479;-74
2023/04/06 02:03:05;;;;;;;19.80;17.15;;;;;;;5.91;100.00;100114.69;5031045;28;20025;-75
2023/04/06 02:05:33;;;;;;;21.58;17.40;;;;;;;5.61;100.00;100052.66;5013731;28;20045;-74
2023/04/06 02:07:58;;;;;;;20.63;17.45;;;;;;;5.85;100.00;100130.72;5031670;28;20021;-75
2023/04/06 02:10:24;;;;;;;19.83;17.50;;;;;;;5.67;100.00;100079.50;5031415;28;20036;-75
2023/04/06 02:12:50;;;;;;;20.52;17.58;;;;;;;5.25;100.00;100053.72;5031607;28;20060;-74
2023/04/06 02:15:15;;;;;;;21.63;17.65;;;;;;;5.49;100.00;100069.53;5013881;28;20095;-75
2023/04/06 02:17:42;;;;;;;21.30;17.42;;;;;;;5.49;100.00;100080.47;5012457;28;20480;-76
2023/04/06 02:20:08;;;;;;;20.02;17.50;;;;;;;5.24;100.00;100054.59;5026130;28;20026;-73
2023/04/06 02:22:35;;;;;;;19.70;17.15;;;;;;;5.15;100.00;100089.88;4994194;28;20053;-75
2023/04/06 02:25:01;;;;;;;20.60;17.98;;;;;;;4.84;100.00;100064.81;4994282;28;20034;-75
2023/04/06 02:27:26;;;;;;;21.90;17.98;;;;;;;5.00;100.00;100150.41;4993495;28;20045;-75
2023/04/06 02:29:52;;;;;;;19.95;17.25;;;;;;;5.07;100.00;100129.38;5011222;28;20492;-75
2023/04/06 02:32:17;;;;;;;19.98;17.27;;;;;;;4.45;100.00;100090.13;5010621;28;20038;-74
2023/04/06 02:34:51;;;;;;;19.73;17.23;;;;;;;5.21;100.00;100152.00;5005257;28;20405;-74
2023/04/06 02:37:17;;;;;;;21.00;17.13;;;;;;;4.42;100.00;100136.25;4991855;28;20094;-75
2023/04/06 02:39:42;;;;;;;21.98;19.08;;;;;;;4.57;100.00;100102.69;5006490;28;20124;-75
2023/04/06 02:42:08;;;;;;;21.65;18.55;;;;;;;4.29;100.00;100085.13;4990924;28;20031;-74
2023/04/06 02:44:34;;;;;;;23.77;18.95;;;;;;;4.72;100.00;100155.50;4990648;28;20030;-75
2023/04/06 02:47:00;;;;;;;20.63;18.23;;;;;;;4.14;100.00;100081.78;4990602;28;20038;-76
2023/04/06 02:49:25;;;;;;;20.77;18.13;;;;;;;4.19;100.00;100075.06;5006618;28;20030;-74
2023/04/06 02:51:51;;;;;;;25.70;22.25;;;;;;;4.42;100.00;100158.91;4991683;28;20509;-76
2023/04/06 02:54:16;;;;;;;50.50;43.85;;;;;;;4.66;100.00;100147.97;5006706;28;20031;-75
2023/04/06 02:56:41;;;;;;;40.22;35.42;;;;;;;4.17;100.00;100087.63;5007806;28;20033;-74
2023/04/06 02:59:07;;;;;;;34.22;30.10;;;;;;;4.56;100.00;100089.25;5009819;28;20038;-75
2023/04/06 03:01:32;;;;;;;32.42;27.08;;;;;;;4.27;100.00;100103.56;5010191;28;20110;-75
2023/04/06 03:03:58;;;;;;;27.42;19.85;;;;;;;4.24;100.00;100159.72;5010434;28;20053;-75
2023/04/06 03:06:23;;;;;;;22.70;19.67;;;;;;;4.46;100.00;100147.16;5050589;28;20539;-75
2023/04/06 03:08:49;;;;;;;23.60;18.65;;;;;;;4.89;100.00;100157.16;5033266;28;20041;-76
2023/04/06 03:11:14;;;;;;;21.80;18.65;;;;;;;3.48;100.00;100010.53;5050492;28;20033;-74
2023/04/06 03:13:39;;;;;;;20.90;17.33;;;;;;;4.50;100.00;100142.09;5050408;28;20124;-74
2023/04/06 03:16:05;;;;;;;20.10;16.77;;;;;;;4.62;100.00;100156.34;5028403;28;20485;-74
2023/04/06 03:18:32;;;;;;;18.98;16.33;;;;;;;4.53;100.00;100088.41;5009765;28;20127;-73
2023/04/06 03:20:57;;;;;;;20.08;17.10;;;;;;;4.31;100.00;100110.25;4993605;28;20092;-74
2023/04/06 03:23:23;;;;;;;19.23;16.25;;;;;;;4.35;100.00;100091.81;4995605;28;20029;-75
2023/04/06 03:25:48;;;;;;;17.85;15.82;;;;;;;3.94;100.00;100053.28;5010427;28;20050;-74
2023/04/06 03:28:14;;;;;;;21.25;17.55;;;;;;;4.98;100.00;100131.94;5011263;28;20500;-74
2023/04/06 03:30:40;;;;;;;19.08;16.48;;;;;;;4.59;100.00;100152.19;4999290;28;20022;-73
2023/04/06 03:33:05;;;;;;;18.17;15.38;;;;;;;4.00;100.00;100064.16;5038409;28;20075;-74
2023/04/06 03:35:31;;;;;;;20.05;16.58;;;;;;;5.39;100.00;100101.53;5036064;28;20485;-73
2023/04/06 03:37:57;;;;;;;20.98;16.65;;;;;;;3.67;100.00;100058.28;5013639;28;20027;-75
2023/04/06 03:40:22;;;;;;;20.25;16.90;;;;;;;4.07;100.00;100101.06;5013728;28;20125;-75
2023/04/06 03:42:48;;;;;;;21.55;18.38;;;;;;;4.59;100.00;100157.22;5014554;28;20026;-75
2023/04/06 03:45:13;;;;;;;21.55;17.27;;;;;;;4.53;100.00;100079.19;5013868;28;20034;-76
2023/04/06 03:47:47;;;;;;;21.84;16.84;;;;;;;4.66;100.00;100141.25;4952755;28;10000991;-75
2023/04/06 03:50:12;;;;;;;28.42;20.33;;;;;;;4.13;100.00;100080.09;5050364;28;20503;-77
2023/04/06 03:52:38;;;;;;;32.35;22.45;;;;;;;4.10;100.00;100127.88;5022875;28;20033;-77
2023/04/06 03:55:04;;;;;;;23.60;18.52;;;;;;;4.48;100.00;100133.72;5033141;28;20037;-73
2023/04/06 03:57:29;;;;;;;24.08;19.00;;;;;;;4.70;100.00;100137.88;5050583;28;20028;-75
2023/04/06 03:59:54;;;;;;;28.38;21.42;;;;;;;4.16;100.00;100057.47;5032907;28;20098;-74
2023/04/06 04:02:20;;;;;;;21.75;17.90;;;;;;;4.50;100.00;100147.13;5013469;28;20029;-76
2023/04/06 04:04:45;;;;;;;31.55;22.08;;;;;;;4.70;100.00;100150.47;5015669;28;20054;-76
2023/04/06 04:07:12;;;;;;;29.98;20.35;;;;;;;4.13;100.00;100077.56;5032553;28;20126;-75
2023/04/06 04:09:37;;;;;;;28.77;20.48;;;;;;;4.83;100.00;100148.78;5030934;28;20060;-74
2023/04/06 04:12:09;;;;;;;29.60;21.17;;;;;;;4.53;100.00;100154.72;5033137;28;20026;-75
2023/04/06 04:14:35;;;;;;;22.23;17.85;;;;;;;4.43;100.00;100106.88;5035450;28;20417;-75
2023/04/06 04:17:00;;;;;;;21.70;17.90;;;;;;;4.21;100.00;100078.41;5030536;28;20033;-75
2023/04/06 04:19:26;;;;;;;25.10;19.38;;;;;;;4.42;100.00;100118.63;5024949;28;20030;-74
2023/04/06 04:21:51;;;;;;;41.97;25.90;;;;;;;4.31;100.00;100123.69;5010326;28;20457;-75
2023/04/06 04:24:17;;;;;;;60.42;31.13;;;;;;;4.02;100.00;100081.78;5008612;28;20069;-75
2023/04/06 04:26:42;;;;;;;31.88;21.70;;;;;;;4.53;100.00;100149.66;5010503;28;20041;-74
2023/04/06 04:29:08;;;;;;;33.30;23.05;;;;;;;3.92;100.00;100096.00;5010166;28;20103;-75
2023/04/06 04:31:33;;;;;;;43.88;28.90;;;;;;;4.27;100.00;100156.38;5010163;28;20038;-74
2023/04/06 04:34:00;;;;;;;27.35;20.67;;;;;;;4.28;100.00;100168.13;4995373;28;20034;-75
2023/04/06 04:36:26;;;;;;;22.98;18.75;;;;;;;3.63;100.00;100079.22;4991594;28;20495;-75
2023/04/06 04:38:52;;;;;;;35.30;25.00;;;;;;;3.98;100.00;100165.59;5007229;28;20041;-75
2023/04/06 04:41:17;;;;;;;41.17;27.60;;;;;;;3.87;100.00;100162.22;4990374;28;20038;-74
2023/04/06 04:43:43;;;;;;;37.08;25.65;;;;;;;3.90;100.00;100152.16;5009036;28;20038;-73
2023/04/06 04:46:09;;;;;;;24.02;18.88;;;;;;;4.14;100.00;100174.84;5022627;28;20099;-72
2023/04/06 04:48:35;;;;;;;29.75;19.40;;;;;;;3.90;100.00;100172.28;5009832;28;20034;-72
2023/04/06 04:51:00;;;;;;;25.55;19.20;;;;;;;3.70;100.00;100103.53;5043878;28;20112;-75
2023/04/06 04:53:28;;;;;;;26.85;19.58;;;;;;;4.38;100.00;100167.28;5012948;28;20072;-73
2023/04/06 04:55:53;;;;;;;27.45;19.02;;;;;;;4.17;100.00;100179.84;5011334;28;20033;-74
2023/04/06 04:58:19;;;;;;;24.85;19.05;;;;;;;3.64;100.00;100106.88;5044012;28;20030;-72
2023/04/06 05:00:48;;;;;;;24.48;19.33;;;;;;;3.56;100.00;100170.50;5012831;28;20526;-73
2023/04/06 05:03:22;;;;;;;32.03;27.63;;;;;;;3.48;100.00;100117.72;5044088;28;20073;-73
2023/04/06 05:05:47;;;;;;;24.95;20.20;;;;;;;3.93;100.00;100168.09;5018635;28;20041;-73
2023/04/06 05:08:13;;;;;;;22.20;18.08;;;;;;;4.17;100.00;100184.88;5033841;28;20082;-73
2023/04/06 05:10:38;;;;;;;21.48;18.33;;;;;;;3.67;100.00;100144.56;5033988;28;20020;-73
2023/04/06 05:13:04;;;;;;;23.30;18.88;;;;;;;4.35;100.00;100152.19;5051311;28;20025;-73
2023/04/06 05:15:30;;;;;;;22.10;18.60;;;;;;;4.06;100.00;100103.56;5051453;28;20107;-74
2023/04/06 05:17:55;;;;;;;28.73;22.23;;;;;;;4.73;100.00;100142.94;5051727;28;20033;-74
2023/04/06 05:20:21;;;;;;;41.42;29.92;;;;;;;4.13;100.00;100140.44;5051170;28;20029;-73
2023/04/06 05:22:46;;;;;;;26.58;20.95;;;;;;;4.97;100.00;100150.41;5034017;28;20036;-73
2023/04/06 05:25:13;;;;;;;23.02;18.67;;;;;;;5.69;100.00;100171.13;5033349;28;20060;-73
2023/04/06 05:27:39;;;;;;;22.13;17.02;;;;;;;5.88;100.00;100138.25;5034044;28;20029;-73
2023/04/06 05:30:06;;;;;;;22.50;18.17;;;;;;;5.31;100.00;100093.16;5051525;28;20036;-72
2023/04/06 05:32:31;;;;;;;19.35;16.65;;;;;;;4.27;100.00;100069.19;5033564;28;20025;-72
2023/04/06 05:34:57;;;;;;;21.55;18.33;;;;;;;5.35;100.00;100142.72;5033687;28;20475;-73
2023/04/06 05:37:22;;;;;;;22.27;17.50;;;;;;;5.76;100.00;100155.13;5033714;28;20040;-72
2023/04/06 05:39:48;;;;;;;19.70;17.00;;;;;;;5.34;100.00;100072.16;5033355;28;20029;-72
2023/04/06 05:42:13;;;;;;;20.30;17.58;;;;;;;5.57;100.00;100072.84;5051307;28;20071;-73
2023/04/06 05:44:39;;;;;;;20.95;17.40;;;;;;;5.37;100.00;100145.25;5051203;28;20040;-73
2023/04/06 05:47:04;;;;;;;23.88;17.15;;;;;;;5.50;100.00;100142.66;5033379;28;20036;-72
2023/04/06 05:49:30;;;;;;;19.88;16.98;;;;;;;5.24;100.00;100142.78;5033422;28;20029;-73
2023/04/06 05:51:55;;;;;;;20.98;17.38;;;;;;;5.94;100.00;100060.00;5051428;28;20123;-73
2023/04/06 05:54:20;;;;;;;19.88;17.23;;;;;;;6.39;100.00;100124.41;5033336;28;20123;-74
2023/04/06 05:56:46;;;;;;;18.92;16.88;;;;;;;5.91;100.00;100056.66;5033732;28;20029;-73
2023/04/06 05:59:11;;;;;;;17.65;15.68;;;;;;;6.52;100.00;100128.47;5032994;28;20499;-73
2023/04/06 06:01:37;;;;;;;20.20;15.98;;;;;;;7.73;100.00;100139.69;5033265;28;20032;-73
2023/04/06 06:04:03;;;;;;;19.25;16.63;;;;;;;7.99;100.00;100061.69;5032149;28;20048;-73
2023/04/06 06:06:31;;;;;;;18.23;16.05;;;;;;;7.95;100.00;100136.00;5033307;28;20431;-72
2023/04/06 06:09:00;;;;;;;17.33;14.75;;;;;;;7.64;100.00;100117.91;5051459;28;20040;-73
2023/04/06 06:11:26;;;;;;;16.38;14.52;;;;;;;6.32;100.00;100056.31;5051576;28;20455;-73
2023/04/06 06:13:52;;;;;;;16.92;15.13;;;;;;;7.74;100.00;100046.06;5051075;28;20123;-74
2023/04/06 06:16:18;;;;;;;17.17;14.95;;;;;;;7.83;100.00;100056.03;5032942;28;20116;-73
2023/04/06 06:18:44;;;;;;;18.02;16.13;;;;;;;9.31;100.00;100098.09;5033334;28;20029;-73
2023/04/06 06:21:11;;;;;;;19.48;15.05;;;;;;;9.23;100.00;100099.97;5032761;28;20029;-73
2023/04/06 06:23:36;;;;;;;16.88;14.98;;;;;;;8.38;100.00;100106.63;5050900;28;20025;-73
2023/04/06 06:26:02;;;;;;;15.50;13.93;;;;;;;9.15;100.00;100110.25;5050608;28;20037;-72
2023/04/06 06:28:27;;;;;;;18.33;16.40;;;;;;;9.38;100.00;100099.63;5033323;28;20067;-74
2023/04/06 06:30:53;;;;;;;16.27;14.57;;;;;;;9.03;100.00;100042.03;5033502;28;20028;-72
2023/04/06 06:33:18;;;;;;;18.05;15.57;;;;;;;8.91;100.00;100041.47;5032951;28;20120;-73
2023/04/06 06:35:44;;;;;;;15.50;14.00;;;;;;;8.72;100.00;100099.28;5050297;28;20048;-73
2023/04/06 06:38:09;;;;;;;17.20;15.50;;;;;;;10.04;100.00;100115.06;5050875;28;20043;-73
2023/04/06 06:40:35;;;;;;;15.77;13.20;;;;;;;8.20;100.00;100121.28;5050654;28;20037;-74
2023/04/06 06:43:00;;;;;;;14.73;13.23;;;;;;;8.61;100.00;100058.09;5033297;28;20036;-73
2023/04/06 06:45:26;;;;;;;15.02;13.38;;;;;;;10.14;100.00;100042.88;5032851;28;20068;-73
2023/04/06 06:47:51;;;;;;;14.55;13.05;;;;;;;9.45;100.00;100081.72;5033039;28;20059;-75
2023/04/06 06:50:17;;;;;;;14.90;13.30;;;;;;;9.54;100.00;100116.22;5036150;28;20030;-74
2023/04/06 06:52:42;;;;;;;16.80;15.10;;;;;;;9.38;100.00;100120.78;5030861;28;20397;-74
2023/04/06 06:55:10;;;;;;;17.55;14.05;;;;;;;8.80;100.00;100111.78;5012989;28;20103;-74
2023/04/06 06:57:35;;;;;;;28.67;20.10;;;;;;;9.54;100.00;100121.28;5030135;28;20036;-75
2023/04/06 07:00:01;;;;;;;18.20;16.10;;;;;;;8.62;100.00;100080.88;5030557;28;20037;-74
2023/04/06 07:02:26;;;;;;;19.90;16.60;;;;;;;8.93;100.00;100073.53;5030786;28;20025;-74
2023/04/06 07:04:52;;;;;;;18.42;14.90;;;;;;;9.70;100.00;100109.09;5012850;28;20125;-74
2023/04/06 07:07:17;;;;;;;16.98;13.80;;;;;;;8.60;100.00;100064.00;4998674;28;20141;-74
2023/04/06 07:09:43;;;;;;;16.52;14.82;;;;;;;8.44;100.00;100134.41;4995657;28;20505;-75
2023/04/06 07:12:08;;;;;;;25.67;22.98;;;;;;;9.54;100.00;100065.44;4995720;28;20051;-75
2023/04/06 07:14:33;;;;;;;18.95;14.77;;;;;;;9.84;100.00;100115.53;4977695;28;20026;-75
2023/04/06 07:16:59;;;;;;;16.75;13.38;;;;;;;9.01;100.00;100055.63;4977636;28;20500;-75
2023/04/06 07:19:24;;;;;;;14.30;12.85;;;;;;;9.69;100.00;100054.09;4991017;28;20034;-73
2023/04/06 07:21:50;;;;;;;17.00;14.50;;;;;;;10.75;100.00;100077.69;4996900;28;20599;-74
2023/04/06 07:24:16;;;;;;;14.00;11.85;;;;;;;10.61;100.00;100027.22;4996887;28;20034;-73
2023/04/06 07:26:42;;;;;;;18.17;15.73;;;;;;;11.06;100.00;99994.56;5030028;28;20463;-74
2023/04/06 07:29:08;;;;;;;15.60;14.10;;;;;;;10.24;100.00;100022.28;4997012;28;20034;-75
2023/04/06 07:31:35;;;;;;;13.45;11.50;;;;;;;10.71;100.00;100037.97;5014392;28;20030;-74
2023/04/06 07:34:00;;;;;;;11.50;10.25;;;;;;;9.84;100.00;100115.53;5014636;28;20103;-73
2023/04/06 07:36:26;;;;;;;13.13;11.63;;;;;;;9.09;100.00;100041.91;4996761;28;20492;-73
2023/04/06 07:38:51;;;;;;;15.18;13.68;;;;;;;12.06;100.00;100112.00;5029339;28;20026;-73
2023/04/06 07:41:17;;;;;;;13.20;11.45;;;;;;;11.54;100.00;100088.97;4995429;28;20030;-73
2023/04/06 07:43:42;;;;;;;12.60;11.38;;;;;;;9.71;100.00;100015.13;4996386;28;20504;-74
2023/04/06 07:46:08;;;;;;;12.35;11.15;;;;;;;10.25;100.00;100142.53;5008023;28;20030;-74
2023/04/06 07:48:33;;;;;;;11.95;10.82;;;;;;;11.36;100.00;100062.34;5011868;28;20034;-74
2023/04/06 07:51:03;;;;;;;12.77;11.43;;;;;;;12.82;100.00;100125.56;5014368;28;20040;-73
2023/04/06 07:53:28;;;;;;;13.45;12.05;;;;;;;11.56;100.00;100060.03;5012277;28;20026;-74
2023/04/06 07:55:55;;;;;;;11.57;10.38;;;;;;;12.05;100.00;100070.38;5013472;28;20107;-73
2023/04/06 07:58:20;;;;;;;11.18;10.07;;;;;;;10.62;100.00;100056.03;5013836;28;20033;-74
2023/04/06 08:00:46;;;;;;;10.27;9.35;;;;;;;10.62;100.00;100129.75;5012611;28;20400;-77
2023/04/06 08:03:11;;;;;;;11.48;10.27;;;;;;;12.12;100.00;100120.25;5012132;28;20041;-74
2023/04/06 08:05:37;;;;;;;10.90;9.82;;;;;;;11.08;100.00;99962.25;5018101;28;20091;-74
2023/04/06 08:08:03;;;;;;;10.77;9.73;;;;;;;12.86;100.00;100116.91;5035045;28;20037;-73
2023/04/06 08:10:29;;;;;;;9.90;8.90;;;;;;;12.12;100.00;100114.34;5034932;28;20025;-74
2023/04/06 08:12:54;;;;;;;9.50;8.18;;;;;;;13.00;100.00;100124.91;5053170;28;20036;-73
2023/04/06 08:15:20;;;;;;;10.48;9.50;;;;;;;11.86;100.00;100102.44;5051440;28;20033;-74
2023/04/06 08:17:45;;;;;;;10.50;9.50;;;;;;;10.82;100.00;100076.63;5035096;28;20036;-75
2023/04/06 08:20:11;;;;;;;11.63;10.52;;;;;;;11.29;100.00;100060.84;5034915;28;20423;-74
2023/04/06 08:22:36;;;;;;;11.35;10.15;;;;;;;11.47;100.00;100045.03;5052981;28;20514;-75
2023/04/06 08:25:01;;;;;;;15.50;13.32;;;;;;;11.66;100.00;100037.69;5035064;28;20029;-72
2023/04/06 08:27:27;;;;;;;10.43;9.40;;;;;;;10.05;100.00;99992.28;5034659;28;20483;-72
2023/04/06 08:29:52;;;;;;;11.77;10.63;;;;;;;12.17;100.00;100115.00;5052643;28;20044;-73
2023/04/06 08:32:18;;;;;;;11.60;10.23;;;;;;;11.07;100.00;100062.38;5052299;28;20041;-73
2023/04/06 08:34:43;;;;;;;12.00;10.50;;;;;;;12.02;100.00;100070.47;5034251;28;20033;-73
2023/04/06 08:37:09;;;;;;;13.23;11.80;;;;;;;11.67;100.00;100029.16;5035131;28;20029;-74
2023/04/06 08:39:34;;;;;;;11.32;10.15;;;;;;;12.58;100.00;100131.50;5034530;28;20033;-74
2023/04/06 08:42:02;;;;;;;13.27;11.70;;;;;;;13.07;100.00;100121.31;5034239;28;20025;-74
2023/04/06 08:44:29;;;;;;;11.10;10.00;;;;;;;11.56;100.00;100057.50;5068170;28;20033;-75
2023/04/06 08:46:55;;;;;;;10.25;9.00;;;;;;;12.41;100.00;100119.31;5053081;28;20035;-75
2023/04/06 08:49:21;;;;;;;9.20;7.88;;;;;;;13.16;100.00;100039.28;5034933;28;20551;-74
2023/04/06 08:51:47;;;;;;;8.05;7.35;;;;;;;13.31;100.00;100107.63;5034868;28;20021;-74
2023/04/06 08:54:12;;;;;;;12.45;9.68;;;;;;;11.91;100.00;100047.06;5035140;28;20037;-75
2023/04/06 08:56:39;;;;;;;10.15;9.10;;;;;;;12.52;100.00;100111.31;5052666;28;20124;-74
2023/04/06 08:59:06;;;;;;;12.48;10.98;;;;;;;13.26;100.00;100116.34;5052701;28;20492;-75
2023/04/06 09:01:38;;;;;;;10.85;9.75;;;;;;;13.07;100.00;100094.03;5052796;28;20090;-74
2023/04/06 09:04:09;;;;;;;9.48;8.55;;;;;;;13.41;100.00;100037.44;5035016;28;20539;-72
2023/04/06 09:06:34;;;;;;;9.50;8.50;;;;;;;12.65;100.00;100117.66;5034784;28;20139;-73
2023/04/06 09:09:00;;;;;;;9.40;8.50;;;;;;;11.45;100.00;100122.34;5051959;28;20067;-69
2023/04/06 09:11:26;;;;;;;9.38;8.48;;;;;;;11.73;100.00;100134.22;5052845;28;20407;-74
2023/04/06 09:13:54;;;;;;;9.95;9.00;;;;;;;12.02;100.00;100133.34;4663463;28;10000093;-75
2023/04/06 09:16:21;;;;;;;8.98;8.18;;;;;;;10.97;100.00;99971.94;5023217;28;20072;-75
2023/04/06 09:18:47;;;;;;;9.55;8.65;;;;;;;13.06;100.00;100076.22;5032758;28;20515;-72
2023/04/06 09:21:13;;;;;;;8.85;7.95;;;;;;;12.40;100.00;100120.19;5030141;28;20092;-74
2023/04/06 09:23:39;;;;;;;12.02;10.73;;;;;;;12.21;100.00;100139.53;5032298;28;20108;-73
2023/04/06 09:26:15;;;;;;;9.10;8.20;;;;;;;12.50;100.00;100125.84;5063068;28;20061;-74
2023/04/06 09:28:54;;;;;;;8.90;8.00;;;;;;;13.28;100.00;100082.22;5029762;28;20025;-73
2023/04/06 09:31:25;;;;;;;8.57;7.63;;;;;;;13.72;100.00;100108.63;5031530;28;20025;-72
2023/04/06 09:33:54;;;;;;;7.80;7.00;;;;;;;11.28;100.00;100120.28;5032269;28;20033;-74
2023/04/06 09:36:28;;;;;;;8.52;7.60;;;;;;;12.62;100.00;100036.13;5024231;28;20112;-75
2023/04/06 09:39:04;;;;;;;8.20;7.40;;;;;;;11.73;100.00;100128.28;5031181;28;20116;-74
2023/04/06 09:41:34;;;;;;;9.85;8.85;;;;;;;11.54;100.00;100084.72;5032184;28;20029;-74
2023/04/06 09:44:07;;;;;;;15.50;10.00;;;;;;;11.92;100.00;100147.25;5032551;28;20035;-73
2023/04/06 09:46:48;;;;;;;11.80;10.60;;;;;;;11.74;100.00;100069.69;5032670;28;20471;-75
2023/04/06 09:49:14;;;;;;;9.93;8.73;;;;;;;10.99;100.00;100087.19;5032390;28;20033;-77
2023/04/06 09:51:47;;;;;;;10.98;9.85;;;;;;;10.88;100.00;100066.31;5031676;28;20029;-76
2023/04/06 09:54:18;;;;;;;8.48;7.68;;;;;;;10.70;100.00;100155.78;5031975;28;20132;-76
2023/04/06 09:57:01;;;;;;;12.10;9.45;;;;;;;11.51;100.00;100081.44;5031975;28;20163;-76
2023/04/06 09:59:53;;;;;;;18.08;14.65;;;;;;;11.84;100.00;100152.59;5031728;28;20037;-77
2023/04/06 10:02:48;;;;;;;16.75;13.90;;;;;;;11.81;100.00;100017.66;5032599;28;20091;-76
2023/04/06 10:05:17;;;;;;;9.65;8.75;;;;;;;11.52;100.00;100147.56;5025335;28;20129;-80
2023/04/06 10:07:43;;;;;;;9.98;8.88;;;;;;;9.99;100.00;100058.47;5067644;28;20047;-78
2023/04/06 10:10:11;;;;;;;10.38;9.45;;;;;;;11.54;100.00;100163.66;5045554;28;20026;-76
2023/04/06 10:12:39;;;;;;;12.68;10.10;;;;;;;11.49;100.00;100075.56;5032628;28;20100;-77
2023/04/06 10:15:08;;;;;;;10.95;9.30;;;;;;;12.99;100.00;100138.56;5014505;28;20464;-76
2023/04/06 10:17:34;;;;;;;9.98;8.65;;;;;;;12.78;100.00;100055.13;5014524;28;20048;-75
2023/04/06 10:20:13;;;;;;;11.00;9.68;;;;;;;13.31;100.00;100127.25;5032234;28;20472;-76
2023/04/06 10:22:52;;;;;;;10.80;9.70;;;;;;;13.71;100.00;100124.84;5032011;28;20044;-75
2023/04/06 10:25:27;;;;;;;8.55;7.75;;;;;;;12.62;100.00;100122.84;5015026;28;20030;-75
2023/04/06 10:28:04;;;;;;;10.85;8.95;;;;;;;11.64;100.00;100148.94;5014955;28;20037;-77
2023/04/06 10:30:43;;;;;;;8.52;7.68;;;;;;;11.15;100.00;100098.63;5032675;28;20056;-75
2023/04/06 10:33:32;;;;;;;8.18;7.38;;;;;;;11.97;100.00;100142.84;5031127;28;20044;-76
2023/04/06 10:35:58;;;;;;;8.00;7.30;;;;;;;10.90;100.00;100062.00;5014755;28;20041;-77
2023/04/06 10:38:38;;;;;;;8.07;7.28;;;;;;;11.05;100.00;100148.91;5033435;28;20488;-78
2023/04/06 10:41:09;;;;;;;8.48;7.68;;;;;;;11.59;100.00;100155.88;5018771;28;20080;-77
2023/04/06 10:43:37;;;;;;;15.02;10.43;;;;;;;11.07;100.00;100100.53;5036306;28;20037;-76
2023/04/06 10:46:04;;;;;;;11.85;8.70;;;;;;;12.28;100.00;100140.97;5036264;28;20041;-76
2023/04/06 10:48:45;;;;;;;9.45;8.38;;;;;;;11.40;100.00;100076.66;5036708;28;20415;-77
2023/04/06 10:51:15;;;;;;;9.52;8.52;;;;;;;13.09;100.00;100157.81;5036165;28;20079;-77
2023/04/06 10:53:47;;;;;;;13.73;12.25;;;;;;;12.31;100.00;100158.75;5018616;28;20026;-77
2023/04/06 10:56:20;;;;;;;11.10;9.93;;;;;;;12.01;100.00;100088.34;5036184;28;20037;-77
2023/04/06 10:58:53;;;;;;;9.90;8.90;;;;;;;12.01;100.00;100109.59;5020870;28;20044;-77
2023/04/06 11:01:27;;;;;;;11.43;10.13;;;;;;;12.05;100.00;100031.31;5036205;28;20033;-76
2023/04/06 11:03:56;;;;;;;8.02;7.32;;;;;;;12.67;100.00;100144.78;5018326;28;20489;-76
2023/04/06 11:06:23;;;;;;;33.25;22.33;;;;;;;12.31;100.00;100071.22;5027271;28;20137;-75
2023/04/06 11:08:59;;;;;;;8.27;6.97;;;;;;;12.03;100.00;100145.19;5016447;28;20475;-76
2023/04/06 11:11:26;;;;;;;7.95;7.00;;;;;;;12.63;100.00;100134.72;5016397;28;20053;-77